createdAt,value
2022-09-09T00:00:34.613Z,95201.91
2022-09-09T00:03:12.094Z,95193.72
2022-09-09T00:05:54.400Z,95204.09
2022-09-09T00:08:27.298Z,95219.75
2022-09-09T00:11:01.149Z,95183.41
2022-09-09T00:13:36.284Z,95206.69
2022-09-09T00:16:17.398Z,95214.31
2022-09-09T00:18:59.414Z,95205.38
2022-09-09T00:21:35.415Z,95217.16
2022-09-09T00:24:11.295Z,95213.72
2022-09-09T00:26:45.181Z,95217.34
2022-09-09T00:29:24.615Z,95207.78
2022-09-09T00:32:00.627Z,95207.16
2022-09-09T00:34:30.539Z,95205.25
2022-09-09T00:36:59.421Z,95201.44
2022-09-09T00:39:39.814Z,95204.78
2022-09-09T00:42:17.445Z,95199.16
2022-09-09T00:45:04.088Z,95212.34
2022-09-09T00:47:43.526Z,95192.44
2022-09-09T00:50:26.080Z,95213.28
2022-09-09T00:53:05.080Z,95214.09
2022-09-09T00:55:42.774Z,95215.19
2022-09-09T00:58:11.950Z,95217.41
2022-09-09T01:00:46.624Z,95204.47
2022-09-09T01:03:28.895Z,95209.50
2022-09-09T01:06:04.644Z,95192.91
2022-09-09T01:09:04.130Z,95206.94
2022-09-09T01:11:39.357Z,95203.81
2022-09-09T01:14:19.728Z,95198.31
2022-09-09T01:16:49.172Z,95197.91
2022-09-09T01:19:26.990Z,95192.72
2022-09-09T01:22:04.385Z,95196.63
2022-09-09T01:24:41.336Z,95187.88
2022-09-09T01:27:13.016Z,95173.16
2022-09-09T01:29:42.406Z,95174.69
2022-09-09T01:32:42.351Z,95193.72
2022-09-09T01:35:16.307Z,95195.81
2022-09-09T01:37:44.744Z,95204.25
2022-09-09T01:40:13.113Z,95196.91
2022-09-09T01:42:43.201Z,95197.41
2022-09-09T01:45:12.488Z,95198.31
2022-09-09T01:47:41.216Z,95196.81
2022-09-09T01:50:12.406Z,95195.91
2022-09-09T01:52:41.044Z,95195.91
2022-09-09T01:55:11.224Z,95156.75
2022-09-09T01:57:50.292Z,95196.41
2022-09-09T02:00:19.428Z,95190.38
2022-09-09T02:02:58.687Z,95165.06
2022-09-09T02:05:38.602Z,95199.50
2022-09-09T02:08:10.959Z,95197.41
2022-09-09T02:10:47.264Z,95181.09
2022-09-09T02:13:19.867Z,95191.00
2022-09-09T02:15:55.012Z,95195.13
2022-09-09T02:18:27.460Z,95198.78
2022-09-09T02:20:58.741Z,95204.06
2022-09-09T02:23:28.065Z,95201.34
2022-09-09T02:25:59.134Z,95204.00
2022-09-09T02:28:32.892Z,95204.00
2022-09-09T02:31:01.812Z,95203.84
2022-09-09T02:33:35.571Z,95207.44
2022-09-09T02:36:05.183Z,95205.44
2022-09-09T02:38:39.308Z,95203.41
2022-09-09T02:41:08.186Z,95206.63
2022-09-09T02:43:38.299Z,95204.41
2022-09-09T02:46:15.969Z,95195.81
2022-09-09T02:48:53.910Z,95192.97
2022-09-09T02:51:29.931Z,95192.34
2022-09-09T02:54:07.887Z,95188.97
2022-09-09T02:56:42.383Z,95187.69
2022-09-09T02:59:12.750Z,95191.34
2022-09-09T03:01:41.501Z,95193.97
2022-09-09T03:04:10.373Z,95135.81
2022-09-09T03:06:39.000Z,95196.16
2022-09-09T03:09:09.479Z,95204.81
2022-09-09T03:11:37.895Z,95202.72
2022-09-09T03:14:06.778Z,95195.88
2022-09-09T03:16:36.806Z,95173.75
2022-09-09T03:19:07.462Z,95208.63
2022-09-09T03:21:35.744Z,95199.06
2022-09-09T03:24:04.884Z,95199.06
2022-09-09T03:26:33.458Z,95200.97
2022-09-09T03:29:02.572Z,95201.47
2022-09-09T03:31:31.499Z,95202.16
2022-09-09T03:34:02.087Z,95191.75
2022-09-09T03:36:30.926Z,95186.81
2022-09-09T03:39:00.136Z,95184.09
2022-09-09T03:41:28.984Z,95191.94
2022-09-09T03:43:57.384Z,95193.84
2022-09-09T03:46:28.029Z,95195.94
2022-09-09T03:48:56.389Z,95192.22
2022-09-09T03:51:26.446Z,95194.75
2022-09-09T03:53:59.319Z,95195.75
2022-09-09T03:56:27.690Z,95186.94
2022-09-09T03:58:56.060Z,95187.41
2022-09-09T04:01:24.551Z,95195.25
2022-09-09T04:03:53.847Z,95177.78
2022-09-09T04:06:22.682Z,95186.00
2022-09-09T04:08:53.764Z,95183.00
2022-09-09T04:11:23.262Z,95178.19
2022-09-09T04:13:51.604Z,95176.91
2022-09-09T04:16:19.973Z,95147.03
2022-09-09T04:18:48.699Z,95162.22
2022-09-09T04:21:17.316Z,95172.91
2022-09-09T04:23:45.781Z,95174.28
2022-09-09T04:26:15.792Z,95161.69
2022-09-09T04:28:44.348Z,95158.84
2022-09-09T04:31:22.569Z,95175.09
2022-09-09T04:33:51.165Z,95170.91
2022-09-09T04:36:22.748Z,95166.63
2022-09-09T04:38:51.195Z,95173.31
2022-09-09T04:41:20.964Z,95183.34
2022-09-09T04:43:49.638Z,95186.53
2022-09-09T04:46:18.337Z,95191.06
2022-09-09T04:48:46.661Z,95187.53
2022-09-09T04:51:16.326Z,95195.06
2022-09-09T04:53:44.780Z,95156.50
2022-09-09T04:56:15.040Z,95188.41
2022-09-09T04:58:45.242Z,95182.00
2022-09-09T05:01:16.328Z,95187.53
2022-09-09T05:03:46.528Z,95151.94
2022-09-09T05:06:17.342Z,95184.09
2022-09-09T05:08:46.467Z,95188.56
2022-09-09T05:11:23.519Z,95190.03
2022-09-09T05:13:54.211Z,95189.16
2022-09-09T05:16:24.094Z,95189.16
2022-09-09T05:18:53.105Z,95176.22
2022-09-09T05:21:22.804Z,95186.53
2022-09-09T05:23:52.113Z,95192.97
2022-09-09T05:26:23.088Z,95184.34
2022-09-09T05:28:52.949Z,95192.16
2022-09-09T05:31:22.146Z,95196.59
2022-09-09T05:33:51.581Z,95205.03
2022-09-09T05:36:21.834Z,95210.31
2022-09-09T05:38:51.031Z,95202.38
2022-09-09T05:41:21.080Z,95197.34
2022-09-09T05:43:49.979Z,95200.59
2022-09-09T05:46:21.958Z,95180.56
2022-09-09T05:48:52.589Z,95169.06
2022-09-09T05:51:23.123Z,95193.78
2022-09-09T05:53:52.333Z,95192.34
2022-09-09T05:56:22.996Z,95195.50
2022-09-09T05:58:52.879Z,95197.91
2022-09-09T06:01:24.644Z,95172.47
2022-09-09T06:03:54.202Z,95201.91
2022-09-09T06:06:25.030Z,95180.16
2022-09-09T06:08:55.439Z,95198.66
2022-09-09T06:11:25.768Z,95199.72
2022-09-09T06:13:55.779Z,95196.88
2022-09-09T06:16:27.664Z,95155.16
2022-09-09T06:18:57.539Z,95199.41
2022-09-09T06:21:28.067Z,95201.00
2022-09-09T06:24:00.353Z,95171.22
2022-09-09T06:26:31.779Z,95206.81
2022-09-09T06:29:01.230Z,95216.66
2022-09-09T06:31:32.504Z,95207.47
2022-09-09T06:34:01.665Z,95225.84
2022-09-09T06:36:32.239Z,95217.03
2022-09-09T06:39:01.140Z,95220.84
2022-09-09T06:41:31.398Z,95217.19
2022-09-09T06:43:59.937Z,95216.75
2022-09-09T06:46:32.296Z,95214.56
2022-09-09T06:49:01.469Z,95213.00
2022-09-09T06:51:31.614Z,95217.66
2022-09-09T06:54:03.331Z,95206.22
2022-09-09T06:56:33.784Z,95214.06
2022-09-09T06:59:05.162Z,95197.47
2022-09-09T07:01:37.502Z,95173.81
2022-09-09T07:04:09.052Z,95210.63
2022-09-09T07:06:39.569Z,95180.34
2022-09-09T07:09:09.992Z,95230.66
2022-09-09T07:11:42.344Z,95225.31
2022-09-09T07:14:14.044Z,95233.69
2022-09-09T07:16:44.157Z,95233.53
2022-09-09T07:19:13.803Z,95240.59
2022-09-09T07:21:42.433Z,95241.38
2022-09-09T07:24:13.461Z,95244.75
2022-09-09T07:26:42.674Z,95247.97
2022-09-09T07:29:11.956Z,95246.22
2022-09-09T07:31:41.974Z,95218.66
2022-09-09T07:34:11.839Z,95255.00
2022-09-09T07:36:43.240Z,95247.47
2022-09-09T07:39:14.313Z,95259.50
2022-09-09T07:41:45.144Z,95255.34
2022-09-09T07:44:15.473Z,95254.22
2022-09-09T07:46:44.616Z,95262.06
2022-09-09T07:49:14.663Z,95266.69
2022-09-09T07:51:45.063Z,95264.81
2022-09-09T07:54:16.338Z,95270.25
2022-09-09T07:56:45.155Z,95268.00
2022-09-09T07:59:13.544Z,95268.34
2022-09-09T08:01:44.818Z,95273.31
2022-09-09T08:04:17.759Z,95276.97
2022-09-09T08:06:48.674Z,95268.00
2022-09-09T08:09:18.361Z,95277.97
2022-09-09T08:11:48.174Z,95275.09
2022-09-09T08:14:17.080Z,95281.00
2022-09-09T08:16:47.467Z,95272.22
2022-09-09T08:19:18.167Z,95279.63
2022-09-09T08:21:47.255Z,95276.28
2022-09-09T08:24:16.322Z,95279.81
2022-09-09T08:26:46.262Z,95275.69
2022-09-09T08:29:15.772Z,95249.53
2022-09-09T08:31:45.685Z,95276.63
2022-09-09T08:34:14.247Z,95275.03
2022-09-09T08:36:46.014Z,95273.59
2022-09-09T08:39:16.140Z,95280.31
2022-09-09T08:42:06.211Z,95279.22
2022-09-09T08:44:48.997Z,95281.59
2022-09-09T08:47:33.875Z,95300.19
2022-09-09T08:50:17.514Z,95293.78
2022-09-09T08:52:53.748Z,95291.19
2022-09-09T08:55:37.956Z,95293.25
2022-09-09T08:58:14.071Z,95288.97
2022-09-09T09:00:53.855Z,95302.72
2022-09-09T09:03:31.659Z,95298.72
2022-09-09T09:06:17.260Z,95298.03
2022-09-09T09:08:54.189Z,95302.50
2022-09-09T09:11:23.619Z,95289.19
2022-09-09T09:13:57.777Z,95306.47
2022-09-09T09:16:33.494Z,95302.13
2022-09-09T09:19:02.883Z,95305.47
2022-09-09T09:21:38.868Z,95314.78
2022-09-09T09:24:21.261Z,95270.69
2022-09-09T09:26:50.819Z,95311.78
2022-09-09T09:29:21.199Z,95312.44
2022-09-09T09:31:55.831Z,95320.13
2022-09-09T09:34:25.563Z,95310.84
2022-09-09T09:36:57.299Z,95312.78
2022-09-09T09:42:23.756Z,95308.13
2022-09-09T09:44:52.501Z,95301.38
2022-09-09T09:47:23.206Z,95304.41
2022-09-09T09:49:56.804Z,95305.81
2022-09-09T09:52:26.531Z,95301.81
2022-09-09T09:54:58.459Z,95313.84
2022-09-09T09:57:30.472Z,95305.16
2022-09-09T10:00:15.157Z,95288.81
2022-09-09T10:02:45.533Z,95283.19
2022-09-09T10:05:20.996Z,95292.47
2022-09-09T10:08:03.600Z,95299.03
2022-09-09T10:10:47.965Z,95306.00
2022-09-09T10:13:25.062Z,95297.81
2022-09-09T10:16:05.497Z,95293.00
2022-09-09T10:18:51.711Z,95290.50
2022-09-09T10:21:50.981Z,95285.84
2022-09-09T10:24:42.869Z,95281.91
2022-09-09T10:27:22.746Z,95289.34
2022-09-09T10:30:03.928Z,95288.19
2022-09-09T10:32:48.667Z,95287.28
2022-09-09T10:35:30.104Z,95289.78
2022-09-09T10:38:15.044Z,95280.84
2022-09-09T10:41:04.123Z,95284.84
2022-09-09T10:43:50.941Z,95272.19
2022-09-09T10:46:28.497Z,95268.72
2022-09-09T10:49:08.172Z,95267.59
2022-09-09T10:51:46.302Z,95270.78
2022-09-09T10:54:45.515Z,95266.66
2022-09-09T10:57:19.572Z,95266.44
2022-09-09T10:59:53.476Z,95248.22
2022-09-09T11:02:28.787Z,95263.94
2022-09-09T11:05:03.745Z,95249.94
2022-09-09T11:07:40.964Z,95254.03
2022-09-09T11:10:21.436Z,95267.72
2022-09-09T11:12:54.917Z,95258.09
2022-09-09T11:15:31.645Z,95258.47
2022-09-09T11:18:03.717Z,95256.56
2022-09-09T11:20:33.339Z,95254.09
2022-09-09T11:23:06.101Z,95256.63
2022-09-09T11:25:38.780Z,95252.63
2022-09-09T11:28:20.517Z,95256.63
2022-09-09T11:31:02.923Z,95268.00
2022-09-09T11:33:51.367Z,95269.94
2022-09-09T11:36:38.400Z,95259.13
2022-09-09T11:39:25.459Z,95252.94
2022-09-09T11:41:53.772Z,95245.31
2022-09-09T11:44:29.588Z,95245.91
2022-09-09T11:46:59.387Z,95237.25
2022-09-09T11:49:42.634Z,95217.75
2022-09-09T11:52:15.390Z,95240.19
2022-09-09T11:54:50.507Z,95250.44
2022-09-09T11:57:33.452Z,95238.16
2022-09-09T12:00:01.807Z,95250.44
2022-09-09T12:02:33.083Z,95246.69
2022-09-09T12:05:09.731Z,95245.59
2022-09-09T12:07:41.148Z,95247.44
2022-09-09T12:10:26.316Z,95257.97
2022-09-09T12:12:54.923Z,95244.78
2022-09-09T12:15:31.161Z,95248.91
2022-09-09T12:18:03.998Z,95257.97
2022-09-09T12:20:38.090Z,95266.66
2022-09-09T12:23:27.921Z,95249.91
2022-09-09T12:26:28.035Z,95263.81
2022-09-09T12:29:07.910Z,95253.75
2022-09-09T12:31:45.715Z,95272.56
2022-09-09T12:34:19.305Z,95249.22
2022-09-09T12:36:54.204Z,95253.66
2022-09-09T12:39:35.240Z,95247.25
2022-09-09T12:42:05.146Z,95244.75
2022-09-09T12:44:34.173Z,95249.13
2022-09-09T12:47:06.096Z,95255.44
2022-09-09T12:49:39.863Z,95264.81
2022-09-09T12:52:11.151Z,95254.56
2022-09-09T12:54:40.060Z,95265.06
2022-09-09T12:57:13.535Z,95260.94
2022-09-09T12:59:46.268Z,95263.00
2022-09-09T13:02:22.178Z,95225.41
2022-09-09T13:04:52.791Z,95254.09
2022-09-09T13:07:22.807Z,95226.06
2022-09-09T13:09:51.890Z,95242.22
2022-09-09T13:12:23.670Z,95237.47
2022-09-09T13:14:56.196Z,95228.59
2022-09-09T13:17:26.487Z,95232.22
2022-09-09T13:19:57.299Z,95236.66
2022-09-09T13:22:34.159Z,95234.53
2022-09-09T13:25:06.019Z,95237.25
2022-09-09T13:27:39.843Z,95227.78
2022-09-09T13:30:25.132Z,95225.53
2022-09-09T13:33:18.435Z,95224.84
2022-09-09T13:35:53.040Z,95194.66
2022-09-09T13:38:27.077Z,95218.78
2022-09-09T13:41:00.408Z,95207.94
2022-09-09T13:43:29.966Z,95173.66
2022-09-09T13:46:00.315Z,95207.00
2022-09-09T13:48:29.697Z,95211.69
2022-09-09T13:51:05.712Z,95204.63
2022-09-09T13:53:34.301Z,95201.25
2022-09-09T13:56:03.151Z,95203.38
2022-09-09T13:58:31.877Z,95194.94
2022-09-09T14:01:00.341Z,95206.88
2022-09-09T14:03:28.817Z,95206.41
2022-09-09T14:05:57.198Z,95196.19
2022-09-09T14:08:29.949Z,95199.59
2022-09-09T14:10:59.441Z,95195.19
2022-09-09T14:13:27.907Z,95167.63
2022-09-09T14:15:56.267Z,95194.38
2022-09-09T14:18:26.532Z,95197.81
2022-09-09T14:20:55.104Z,95197.56
2022-09-09T14:23:23.880Z,95193.81
2022-09-09T14:25:54.388Z,95197.25
2022-09-09T14:28:34.241Z,95194.41
2022-09-09T14:31:12.221Z,95197.81
2022-09-09T14:33:40.599Z,95198.16
2022-09-09T14:36:09.179Z,95201.81
2022-09-09T14:38:40.776Z,95208.31
2022-09-09T14:41:13.016Z,95202.38
2022-09-09T14:43:41.691Z,95204.91
2022-09-09T14:46:11.593Z,95197.63
2022-09-09T14:48:41.768Z,95195.78
2022-09-09T14:51:11.507Z,95201.84
2022-09-09T14:53:39.908Z,95194.63
2022-09-09T14:56:12.100Z,95193.97
2022-09-09T14:58:40.671Z,95193.72
2022-09-09T15:01:12.013Z,95195.56
2022-09-09T15:03:41.719Z,95176.75
2022-09-09T15:06:11.187Z,95194.28
2022-09-09T15:08:42.538Z,95201.16
2022-09-09T15:11:14.111Z,95194.97
2022-09-09T15:13:44.246Z,95193.28
2022-09-09T15:16:15.156Z,95199.16
2022-09-09T15:18:46.177Z,95198.91
2022-09-09T15:21:16.668Z,95204.59
2022-09-09T15:23:46.179Z,95199.94
2022-09-09T15:26:16.357Z,95212.97
2022-09-09T15:28:46.143Z,95208.31
2022-09-09T15:31:18.694Z,95207.75
2022-09-09T15:33:50.209Z,95212.03
2022-09-09T15:36:20.258Z,95205.78
2022-09-09T15:38:48.660Z,95199.75
2022-09-09T15:41:20.444Z,95192.00
2022-09-09T15:43:51.047Z,95190.97
2022-09-09T15:46:28.962Z,95189.22
2022-09-09T15:48:58.807Z,95183.78
2022-09-09T15:51:42.260Z,95189.44
2022-09-09T15:54:13.411Z,95189.22
2022-09-09T15:56:44.422Z,95191.63
2022-09-09T15:59:13.963Z,95178.97
2022-09-09T16:01:45.323Z,95184.97
2022-09-09T16:04:14.092Z,95172.63
2022-09-09T16:06:44.057Z,95198.94
2022-09-09T16:09:13.186Z,95193.59
2022-09-09T16:11:43.524Z,95192.69
2022-09-09T16:14:12.518Z,95191.09
2022-09-09T16:16:43.160Z,95170.44
2022-09-09T16:19:13.948Z,95179.78
2022-09-09T16:21:45.292Z,95191.84
2022-09-09T16:24:16.522Z,95181.25
2022-09-09T16:26:48.364Z,95183.66
2022-09-09T16:29:18.529Z,95182.75
2022-09-09T16:31:49.044Z,95184.22
2022-09-09T16:34:19.401Z,95187.38
2022-09-09T16:36:49.414Z,95184.13
2022-09-09T16:39:21.238Z,95198.97
2022-09-09T16:41:52.627Z,95193.72
2022-09-09T16:44:21.496Z,95203.69
2022-09-09T16:46:56.699Z,95209.69
2022-09-09T16:49:28.664Z,95203.63
2022-09-09T16:52:00.432Z,95180.75
2022-09-09T16:54:30.289Z,95215.28
2022-09-09T16:57:01.819Z,95221.75
2022-09-09T16:59:31.554Z,95217.41
2022-09-09T17:02:00.251Z,95217.63
2022-09-09T17:04:29.762Z,95228.88
2022-09-09T17:06:58.535Z,95194.84
2022-09-09T17:09:30.361Z,95234.50
2022-09-09T17:12:01.121Z,95187.38
2022-09-09T17:14:29.574Z,95221.88
2022-09-09T17:17:09.381Z,95236.38
2022-09-09T17:19:47.413Z,95239.00
2022-09-09T17:22:17.795Z,95236.44
2022-09-09T17:24:46.832Z,95227.31
2022-09-09T17:27:17.028Z,95229.09
2022-09-09T17:29:45.797Z,95223.66
2022-09-09T17:32:14.234Z,95167.59
2022-09-09T17:34:42.605Z,95230.09
2022-09-09T17:37:11.005Z,95222.72
2022-09-09T17:39:39.521Z,95230.41
2022-09-09T17:42:09.174Z,95216.75
2022-09-09T17:44:40.339Z,95236.44
2022-09-09T17:47:08.851Z,95238.56
2022-09-09T17:49:37.706Z,95220.06
2022-09-09T17:52:06.968Z,95227.44
2022-09-09T17:54:35.932Z,95255.28
2022-09-09T17:57:04.511Z,95278.38
2022-09-09T17:59:32.848Z,95227.47
2022-09-09T18:02:06.264Z,95264.63
2022-09-09T18:04:34.709Z,95263.66
2022-09-09T18:07:03.289Z,95273.09
2022-09-09T18:09:32.667Z,95282.22
2022-09-09T18:12:01.839Z,95183.25
2022-09-09T18:14:32.438Z,95265.41
2022-09-09T18:17:04.195Z,95282.88
2022-09-09T18:19:36.310Z,95288.81
2022-09-09T18:22:07.075Z,95297.28
2022-09-09T18:24:38.020Z,95268.00
2022-09-09T18:27:07.864Z,95295.06
2022-09-09T18:29:38.020Z,95284.16
2022-09-09T18:32:08.457Z,95212.34
2022-09-09T18:34:36.909Z,95279.69
2022-09-09T18:37:08.466Z,95284.00
2022-09-09T18:39:37.862Z,95272.31
2022-09-09T18:42:07.351Z,95272.31
2022-09-09T18:44:37.077Z,95269.94
2022-09-09T18:47:05.731Z,95274.25
2022-09-09T18:49:35.532Z,95264.16
2022-09-09T18:52:04.624Z,95271.06
2022-09-09T18:54:35.272Z,95260.66
2022-09-09T18:57:04.636Z,95263.19
2022-09-09T18:59:33.576Z,95267.69
2022-09-09T19:02:02.194Z,95256.97
2022-09-09T19:04:32.970Z,95250.59
2022-09-09T19:07:03.035Z,95255.69
2022-09-09T19:09:35.013Z,95206.53
2022-09-09T19:12:04.016Z,95254.41
2022-09-09T19:14:33.885Z,95254.56
2022-09-09T19:17:02.768Z,95241.88
2022-09-09T19:19:33.656Z,95274.22
2022-09-09T19:22:09.100Z,95279.16
2022-09-09T19:24:38.431Z,95283.63
2022-09-09T19:27:08.855Z,95278.78
2022-09-09T19:29:41.007Z,95216.50
2022-09-09T19:34:59.633Z,95298.75
2022-09-09T19:37:29.515Z,95290.59
2022-09-09T19:39:58.437Z,95292.69
2022-09-09T19:42:27.692Z,95289.50
2022-09-09T19:44:56.964Z,95297.81
2022-09-09T19:47:26.088Z,95315.38
2022-09-09T19:49:55.193Z,95310.41
2022-09-09T19:52:23.679Z,95311.03
2022-09-09T19:54:53.426Z,95307.53
2022-09-09T19:57:22.932Z,95300.97
2022-09-09T19:59:51.328Z,95301.41
2022-09-09T20:02:19.827Z,95298.03
2022-09-09T20:04:48.300Z,95299.94
2022-09-09T20:07:16.666Z,95303.91
2022-09-09T20:09:45.096Z,95299.28
2022-09-09T20:12:14.834Z,95301.53
2022-09-09T20:14:43.287Z,95303.41
2022-09-09T20:17:12.070Z,95253.22
2022-09-09T20:19:41.300Z,95262.00
2022-09-09T20:22:09.757Z,95297.31
2022-09-09T20:24:38.380Z,95304.31
2022-09-09T20:27:09.655Z,95300.28
2022-09-09T20:29:39.705Z,95292.28
2022-09-09T20:32:08.568Z,95284.78
2022-09-09T20:34:37.029Z,95295.28
2022-09-09T20:37:06.525Z,95293.63
2022-09-09T20:39:36.456Z,95300.53
2022-09-09T20:42:05.468Z,95301.16
2022-09-09T20:44:33.929Z,95277.25
2022-09-09T20:47:07.388Z,95300.34
2022-09-09T20:49:36.553Z,95275.63
2022-09-09T20:52:06.204Z,95315.16
2022-09-09T20:54:36.151Z,95318.09
2022-09-09T20:57:04.619Z,95306.53
2022-09-09T20:59:34.836Z,95311.09
2022-09-09T21:02:05.167Z,95068.63
2022-09-09T21:04:33.616Z,95298.19
2022-09-09T21:07:02.773Z,95317.25
2022-09-09T21:09:31.199Z,95307.75
2022-09-09T21:11:59.715Z,95248.34
2022-09-09T21:14:28.645Z,95316.13
2022-09-09T21:16:57.003Z,95322.19
2022-09-09T21:19:26.813Z,95310.84
2022-09-09T21:21:55.113Z,95313.56
2022-09-09T21:24:24.025Z,95310.34
2022-09-09T21:26:54.745Z,95311.59
2022-09-09T21:29:24.347Z,95308.88
2022-09-09T21:31:53.252Z,95314.41
2022-09-09T21:34:21.936Z,95308.88
2022-09-09T21:36:51.806Z,95318.84
2022-09-09T21:39:20.341Z,95318.19
2022-09-09T21:41:49.585Z,95318.47
2022-09-09T21:44:19.342Z,95236.50
2022-09-09T21:46:48.018Z,95318.09
2022-09-09T21:49:16.961Z,95279.22
2022-09-09T21:51:45.953Z,95324.13
2022-09-09T21:54:15.837Z,95326.94
2022-09-09T21:56:44.263Z,95299.69
2022-09-09T21:59:12.612Z,95322.94
2022-09-09T22:01:41.967Z,95322.47
2022-09-09T22:04:10.742Z,95244.97
2022-09-09T22:06:39.675Z,95315.91
2022-09-09T22:09:08.075Z,95321.16
2022-09-09T22:11:37.844Z,95322.75
2022-09-09T22:14:06.645Z,95307.72
2022-09-09T22:16:35.200Z,95311.84
2022-09-09T22:19:04.104Z,95270.22
2022-09-09T22:21:34.274Z,95084.91
2022-09-09T22:24:05.596Z,95296.06
2022-09-09T22:26:36.393Z,95298.88
2022-09-09T22:29:07.800Z,95295.03
2022-09-09T22:31:37.779Z,95284.00
2022-09-09T22:34:07.044Z,95290.84
2022-09-09T22:36:35.745Z,95283.63
2022-09-09T22:39:04.584Z,95282.03
2022-09-09T22:41:34.128Z,95279.63
2022-09-09T22:44:02.947Z,95275.78
2022-09-09T22:46:32.763Z,95274.22
2022-09-09T22:49:03.907Z,95274.09
2022-09-09T22:51:34.487Z,95274.22
2022-09-09T22:54:02.987Z,95269.59
2022-09-09T22:56:31.388Z,95275.63
2022-09-09T22:58:59.755Z,95275.00
2022-09-09T23:01:29.398Z,95286.47
2022-09-09T23:04:02.886Z,95249.97
2022-09-09T23:06:31.885Z,95285.97
2022-09-09T23:09:02.694Z,95291.50
2022-09-09T23:11:33.472Z,95303.03
2022-09-09T23:14:03.983Z,95293.09
2022-09-09T23:16:35.458Z,95290.09
2022-09-09T23:19:07.153Z,95288.06
2022-09-09T23:21:35.788Z,95282.94
2022-09-09T23:24:06.212Z,95291.25
2022-09-09T23:26:35.240Z,95293.47
2022-09-09T23:29:03.827Z,95188.28
2022-09-09T23:31:38.053Z,95267.03
2022-09-09T23:34:08.372Z,95294.31
2022-09-09T23:36:37.861Z,95286.69
2022-09-09T23:39:07.839Z,95295.03
2022-09-09T23:41:37.847Z,95306.94
2022-09-09T23:44:07.447Z,95297.44
2022-09-09T23:46:36.672Z,95267.44
2022-09-09T23:49:08.486Z,95293.31
2022-09-09T23:51:39.285Z,95303.63
2022-09-09T23:54:10.021Z,95302.88
2022-09-09T23:56:40.583Z,95283.09
2022-09-09T23:59:09.822Z,95276.38
